DLH150 ENBR-EDDH
Flight info
| Callsign | DLH150 |
|---|---|
| Flight time | N/A |
| Altitude | 39000 |
| Route | TUXIL DCT ZOL DCT RAMUD DCT ALASA M852 EKERN/N0352F230 T905 BOGMU BOGMU3N |
| Aircraft | A20N/M-SDE2E3FGHIRWXY/LB1 |
Departure
| Time | 2026-04-27 16:58 |
|---|---|
| Airport | Bergen Airport, Flesland (ENBR) |
Arrival
| Time | N/A |
|---|---|
| Airport | Hamburg Helmut Schmidt Airport (EDDH) |
| Time | Latitude | Longitude | Altitude | Speed | Heading |
|---|---|---|---|---|---|
| 2026-04-27 16:24 | 60.28961 | 5.22592 | 175 ft | 0 kts | 131° |
| 2026-04-27 16:37 | 60.28962 | 5.22591 | 175 ft | 0 kts | 131° |
| 2026-04-27 16:43 | 60.28971 | 5.22569 | 175 ft | 4 kts | 131° |
| 2026-04-27 16:43 | 60.28989 | 5.22528 | 175 ft | 4 kts | 131° |
| 2026-04-27 16:44 | 60.29007 | 5.22487 | 175 ft | 4 kts | 131° |
| 2026-04-27 16:44 | 60.29020 | 5.22455 | 175 ft | 0 kts | 131° |
| 2026-04-27 16:46 | 60.29020 | 5.22456 | 175 ft | 1 kts | 131° |
| 2026-04-27 16:47 | 60.29014 | 5.22454 | 175 ft | 1 kts | 180° |
| 2026-04-27 16:47 | 60.28969 | 5.22389 | 175 ft | 12 kts | 206° |
| 2026-04-27 16:47 | 60.28865 | 5.22416 | 174 ft | 21 kts | 171° |
| 2026-04-27 16:47 | 60.28695 | 5.22474 | 172 ft | 26 kts | 173° |
| 2026-04-27 16:48 | 60.28537 | 5.22520 | 165 ft | 23 kts | 171° |
| 2026-04-27 16:48 | 60.28396 | 5.22564 | 161 ft | 24 kts | 171° |
| 2026-04-27 16:48 | 60.28314 | 5.22569 | 159 ft | 0 kts | 211° |
| 2026-04-27 16:50 | 60.28305 | 5.22550 | 159 ft | 6 kts | 231° |
| 2026-04-27 16:50 | 60.28225 | 5.22509 | 156 ft | 16 kts | 172° |
| 2026-04-27 16:51 | 60.28105 | 5.22546 | 152 ft | 12 kts | 179° |
| 2026-04-27 16:51 | 60.28081 | 5.22534 | 151 ft | 7 kts | 199° |
| 2026-04-27 16:51 | 60.28079 | 5.22531 | 151 ft | 0 kts | 209° |
| 2026-04-27 16:51 | 60.28078 | 5.22529 | 151 ft | 1 kts | 212° |
| 2026-04-27 16:52 | 60.28074 | 5.22520 | 151 ft | 0 kts | 224° |
| 2026-04-27 16:53 | 60.28064 | 5.22489 | 152 ft | 5 kts | 240° |
| 2026-04-27 16:53 | 60.28057 | 5.22440 | 152 ft | 0 kts | 258° |
| 2026-04-27 16:56 | 60.28053 | 5.22398 | 153 ft | 5 kts | 258° |
| 2026-04-27 16:56 | 60.28056 | 5.22270 | 153 ft | 15 kts | 293° |
| 2026-04-27 16:57 | 60.28090 | 5.22235 | 153 ft | 0 kts | 352° |
| 2026-04-27 16:57 | 60.28113 | 5.22229 | 153 ft | 25 kts | 352° |
| 2026-04-27 16:58 | 60.28679 | 5.22032 | 161 ft | 132 kts | 351° |
| 2026-04-27 16:58 | 60.29807 | 5.21634 | 585 ft | 181 kts | 349° |
| 2026-04-27 16:58 | 60.31113 | 5.21226 | 1774 ft | 188 kts | 350° |
| 2026-04-27 16:58 | 60.32464 | 5.20778 | 2853 ft | 209 kts | 351° |
| 2026-04-27 16:59 | 60.33940 | 5.20268 | 3829 ft | 234 kts | 351° |
| 2026-04-27 16:59 | 60.35617 | 5.19694 | 4749 ft | 258 kts | 351° |
| 2026-04-27 16:59 | 60.37392 | 5.19090 | 4873 ft | 263 kts | 351° |
| 2026-04-27 16:59 | 60.39224 | 5.18470 | 5379 ft | 267 kts | 351° |
| 2026-04-27 17:00 | 60.41662 | 5.17647 | 7299 ft | 262 kts | 351° |
| 2026-04-27 17:00 | 60.44683 | 5.16624 | 9550 ft | 271 kts | 351° |
| 2026-04-27 17:00 | 60.46473 | 5.15421 | 10860 ft | 277 kts | 330° |
| 2026-04-27 17:01 | 60.47890 | 5.12729 | 12089 ft | 284 kts | 305° |
| 2026-04-27 17:01 | 60.48620 | 5.08942 | 13278 ft | 294 kts | 280° |
| 2026-04-27 17:01 | 60.48535 | 5.04793 | 14434 ft | 304 kts | 261° |
| 2026-04-27 17:01 | 60.47723 | 5.00786 | 15487 ft | 313 kts | 237° |
| 2026-04-27 17:02 | 60.46155 | 4.97620 | 16242 ft | 326 kts | 216° |
| 2026-04-27 17:02 | 60.44092 | 4.95783 | 16361 ft | 327 kts | 192° |
| 2026-04-27 17:02 | 60.41816 | 4.95739 | 16489 ft | 339 kts | 169° |
| 2026-04-27 17:02 | 60.39415 | 4.96997 | 16653 ft | 371 kts | 163° |
| 2026-04-27 17:03 | 60.36898 | 4.98338 | 17433 ft | 382 kts | 166° |
| 2026-04-27 17:03 | 60.34269 | 4.99399 | 18464 ft | 387 kts | 170° |
| 2026-04-27 17:03 | 60.31600 | 5.00195 | 19306 ft | 393 kts | 172° |
| 2026-04-27 17:03 | 60.28865 | 5.00839 | 20166 ft | 398 kts | 173° |
| 2026-04-27 17:04 | 60.26106 | 5.01663 | 20998 ft | 404 kts | 168° |
| 2026-04-27 17:04 | 60.23315 | 5.02758 | 21829 ft | 409 kts | 168° |
| 2026-04-27 17:04 | 60.20537 | 5.03852 | 22656 ft | 414 kts | 168° |
| 2026-04-27 17:04 | 60.17692 | 5.04989 | 23461 ft | 420 kts | 166° |
| 2026-04-27 17:05 | 60.14856 | 5.06661 | 24212 ft | 425 kts | 158° |
| 2026-04-27 17:05 | 60.12109 | 5.08972 | 24900 ft | 429 kts | 155° |